createdAt,value
2018-01-03T00:01:53.473Z,0.80
2018-01-03T00:04:19.893Z,2.15
2018-01-03T00:06:46.332Z,1.85
2018-01-03T00:09:12.741Z,0.82
2018-01-03T00:11:39.904Z,1.00
2018-01-03T00:14:06.317Z,1.00
2018-01-03T00:16:33.436Z,0.80
2018-01-03T00:19:00.620Z,0.60
2018-01-03T00:21:27.072Z,0.80
2018-01-03T00:23:53.497Z,0.82
2018-01-03T00:26:19.961Z,0.73
2018-01-03T00:28:46.388Z,0.40
2018-01-03T00:31:12.825Z,0.70
2018-01-03T00:33:39.245Z,0.60
2018-01-03T00:36:05.648Z,0.98
2018-01-03T00:38:32.789Z,0.45
2018-01-03T00:40:59.201Z,0.40
2018-01-03T00:43:25.727Z,0.50
2018-01-03T00:45:52.168Z,0.50
2018-01-03T00:48:18.585Z,0.68
2018-01-03T00:50:45.010Z,0.62
2018-01-03T00:53:11.418Z,0.90
2018-01-03T00:55:37.949Z,0.50
2018-01-03T00:58:04.387Z,0.77
2018-01-03T01:00:30.788Z,0.50
2018-01-03T01:02:57.245Z,1.23
2018-01-03T01:05:23.635Z,0.50
2018-01-03T01:07:50.049Z,0.40
2018-01-03T01:10:16.461Z,1.30
2018-01-03T01:12:42.915Z,0.40
2018-01-03T01:15:09.301Z,0.65
2018-01-03T01:17:35.721Z,0.40
2018-01-03T01:20:02.921Z,0.50
2018-01-03T01:22:29.332Z,0.30
2018-01-03T01:24:55.747Z,0.40
2018-01-03T01:27:22.211Z,1.12
2018-01-03T01:29:48.625Z,0.47
2018-01-03T01:32:15.056Z,0.40
2018-01-03T01:34:41.488Z,0.60
2018-01-03T01:37:07.912Z,0.30
2018-01-03T01:39:34.326Z,0.60
2018-01-03T01:42:00.777Z,0.82
2018-01-03T01:44:27.224Z,0.30
2018-01-03T01:46:53.644Z,0.30
2018-01-03T01:49:20.028Z,0.50
2018-01-03T01:51:46.465Z,0.70
2018-01-03T01:54:12.867Z,0.40
2018-01-03T01:56:39.304Z,0.30
2018-01-03T01:59:05.692Z,0.40
2018-01-03T02:01:32.854Z,0.40
2018-01-03T02:03:59.610Z,0.30
2018-01-03T02:06:26.066Z,0.30
2018-01-03T02:08:52.470Z,0.40
2018-01-03T02:11:18.907Z,0.20
2018-01-03T02:13:45.373Z,0.68
2018-01-03T02:16:11.776Z,0.20
2018-01-03T02:18:38.232Z,0.20
2018-01-03T02:21:04.616Z,0.73
2018-01-03T02:23:31.787Z,0.30
2018-01-03T02:25:58.221Z,0.30
2018-01-03T02:28:24.624Z,0.50
2018-01-03T02:30:51.839Z,0.30
2018-01-03T02:33:18.252Z,0.30
2018-01-03T02:35:44.653Z,0.30
2018-01-03T02:38:23.312Z,0.32
2018-01-03T02:40:49.740Z,0.30
2018-01-03T02:43:16.917Z,0.30
2018-01-03T02:45:43.372Z,0.20
2018-01-03T02:48:10.544Z,0.30
2018-01-03T02:50:37.194Z,0.30
2018-01-03T02:53:03.611Z,0.20
2018-01-03T02:55:29.994Z,0.25
2018-01-03T02:57:56.416Z,0.50
2018-01-03T03:00:22.937Z,0.25
2018-01-03T03:02:49.312Z,0.30
2018-01-03T03:05:15.732Z,0.30
2018-01-03T03:07:43.232Z,0.20
2018-01-03T03:10:09.677Z,0.35
2018-01-03T03:12:36.172Z,0.32
2018-01-03T03:15:02.652Z,0.45
2018-01-03T03:17:29.053Z,0.45
2018-01-03T03:19:55.463Z,0.30
2018-01-03T03:22:22.656Z,0.30
2018-01-03T03:24:49.070Z,0.40
2018-01-03T03:27:15.533Z,0.30
2018-01-03T03:29:41.911Z,0.95
2018-01-03T03:32:08.311Z,0.70
2018-01-03T03:34:34.723Z,0.70
2018-01-03T03:37:01.134Z,0.50
2018-01-03T03:39:28.268Z,0.73
2018-01-03T03:41:54.668Z,0.47
2018-01-03T03:44:21.376Z,0.77
2018-01-03T03:46:47.760Z,0.77
2018-01-03T03:49:14.158Z,0.60
2018-01-03T03:51:40.550Z,0.88
2018-01-03T03:54:07.700Z,0.30
2018-01-03T03:56:34.119Z,0.50
2018-01-03T03:59:01.249Z,0.60
2018-01-03T04:01:27.674Z,2.12
2018-01-03T04:03:54.092Z,0.95
2018-01-03T04:06:20.576Z,0.50
2018-01-03T04:08:46.977Z,1.27
2018-01-03T04:11:13.379Z,0.40
2018-01-03T04:13:39.805Z,0.50
2018-01-03T04:16:06.231Z,0.30
2018-01-03T04:18:32.621Z,0.65
2018-01-03T04:20:59.808Z,0.60
2018-01-03T04:23:26.236Z,1.02
2018-01-03T04:25:52.632Z,0.40
2018-01-03T04:28:19.813Z,0.40
2018-01-03T04:30:46.197Z,0.40
2018-01-03T04:33:12.660Z,0.20
2018-01-03T04:35:39.057Z,0.85
2018-01-03T04:38:05.480Z,0.60
2018-01-03T04:40:32.202Z,0.50
2018-01-03T04:42:58.583Z,0.50
2018-01-03T04:45:24.996Z,0.40
2018-01-03T04:47:51.434Z,0.45
2018-01-03T04:50:17.844Z,0.55
2018-01-03T04:52:44.242Z,0.40
2018-01-03T04:55:10.637Z,0.65
2018-01-03T04:57:37.037Z,0.40
2018-01-03T05:00:03.469Z,0.60
2018-01-03T05:02:29.895Z,0.73
2018-01-03T05:04:56.328Z,0.68
2018-01-03T05:07:22.740Z,0.55
2018-01-03T05:09:49.156Z,0.50
2018-01-03T05:12:15.560Z,0.55
2018-01-03T05:14:41.969Z,1.35
2018-01-03T05:17:08.408Z,0.47
2018-01-03T05:19:35.584Z,0.77
2018-01-03T05:22:01.960Z,0.50
2018-01-03T05:24:28.416Z,0.80
2018-01-03T05:26:54.821Z,0.57
2018-01-03T05:29:21.237Z,1.62
2018-01-03T05:31:48.376Z,1.40
2018-01-03T05:34:14.755Z,1.12
2018-01-03T05:36:41.160Z,3.15
2018-01-03T05:39:07.561Z,1.40
2018-01-03T05:41:33.954Z,2.08
2018-01-03T05:44:00.333Z,1.62
2018-01-03T05:46:26.782Z,1.05
2018-01-03T05:48:53.196Z,1.15
2018-01-03T05:51:20.375Z,1.20
2018-01-03T05:53:46.796Z,2.97
2018-01-03T05:56:13.926Z,0.88
2018-01-03T05:58:41.130Z,0.50
2018-01-03T06:01:07.574Z,0.70
2018-01-03T06:03:33.994Z,0.85
2018-01-03T06:06:00.380Z,2.30
2018-01-03T06:08:27.531Z,1.73
2018-01-03T06:10:54.657Z,1.02
2018-01-03T06:13:21.108Z,1.15
2018-01-03T06:15:48.236Z,1.30
2018-01-03T06:18:14.648Z,1.27
2018-01-03T06:20:41.916Z,0.98
2018-01-03T06:23:08.316Z,2.12
2018-01-03T06:25:34.739Z,0.60
2018-01-03T06:28:01.144Z,0.77
2018-01-03T06:30:28.345Z,0.82
2018-01-03T06:32:54.764Z,0.85
2018-01-03T06:35:21.132Z,0.50
2018-01-03T06:37:47.536Z,0.60
2018-01-03T06:40:13.929Z,1.02
2018-01-03T06:42:41.084Z,0.60
2018-01-03T06:45:08.216Z,0.90
2018-01-03T06:47:35.390Z,0.95
2018-01-03T06:50:01.802Z,1.20
2018-01-03T06:52:28.965Z,0.80
2018-01-03T06:54:55.359Z,0.70
2018-01-03T06:57:22.525Z,0.30
2018-01-03T06:59:48.940Z,0.47
2018-01-03T07:02:15.344Z,0.40
2018-01-03T07:04:41.760Z,0.50
2018-01-03T07:07:08.147Z,1.33
2018-01-03T07:09:35.418Z,1.10
2018-01-03T07:12:01.829Z,0.57
2018-01-03T07:14:28.281Z,0.70
2018-01-03T07:16:55.415Z,1.35
2018-01-03T07:19:21.836Z,1.20
2018-01-03T07:34:48.400Z,1.15
2018-01-03T07:37:15.546Z,0.68
2018-01-03T07:39:41.969Z,0.60
2018-01-03T07:42:08.454Z,0.40
2018-01-03T07:44:34.860Z,1.08
2018-01-03T07:47:01.314Z,0.45
2018-01-03T07:49:27.749Z,3.50
2018-01-03T07:51:54.172Z,0.50
2018-01-03T07:54:20.609Z,0.40
2018-01-03T07:56:47.035Z,1.00
2018-01-03T07:59:13.454Z,0.85
2018-01-03T08:01:39.979Z,0.50
2018-01-03T08:04:06.368Z,0.73
2018-01-03T08:06:32.764Z,0.90
2018-01-03T08:08:59.248Z,0.60
2018-01-03T08:11:26.391Z,0.50
2018-01-03T08:13:52.828Z,0.60
2018-01-03T08:16:19.976Z,1.42
2018-01-03T08:18:46.425Z,0.40
2018-01-03T08:21:13.688Z,1.20
2018-01-03T08:23:40.805Z,0.30
2018-01-03T08:26:07.227Z,0.73
2018-01-03T08:28:33.632Z,1.20
2018-01-03T08:31:00.024Z,0.60
2018-01-03T08:33:27.196Z,0.50
2018-01-03T08:35:53.623Z,2.55
2018-01-03T08:38:20.108Z,2.20
2018-01-03T08:40:46.547Z,2.95
2018-01-03T08:43:12.950Z,1.90
2018-01-03T08:45:39.392Z,1.90
2018-01-03T08:48:05.790Z,2.35
2018-01-03T08:50:32.304Z,1.85
2018-01-03T08:52:59.457Z,0.77
2018-01-03T08:55:26.743Z,3.12
2018-01-03T08:57:53.137Z,1.35
2018-01-03T09:00:20.272Z,0.55
2018-01-03T09:02:46.701Z,0.40
2018-01-03T09:05:13.142Z,1.80
2018-01-03T09:07:39.520Z,0.93
2018-01-03T09:10:05.910Z,0.80
2018-01-03T09:12:32.349Z,1.65
2018-01-03T09:14:59.488Z,0.73
2018-01-03T09:17:25.899Z,1.15
2018-01-03T09:19:52.293Z,1.67
2018-01-03T09:22:18.717Z,0.73
2018-01-03T09:24:45.160Z,1.77
2018-01-03T09:27:11.633Z,1.30
2018-01-03T09:29:38.044Z,1.95
2018-01-03T09:32:04.460Z,1.15
2018-01-03T09:34:30.888Z,0.65
2018-01-03T09:36:57.340Z,2.78
2018-01-03T09:39:23.757Z,0.40
2018-01-03T09:41:50.290Z,0.40
2018-01-03T09:44:16.672Z,3.62
2018-01-03T09:46:43.079Z,1.25
2018-01-03T09:49:09.501Z,1.87
2018-01-03T09:51:35.902Z,1.05
2018-01-03T09:54:02.344Z,0.50
2018-01-03T09:56:28.789Z,1.00
2018-01-03T09:58:55.197Z,3.90
2018-01-03T10:01:22.335Z,0.80
2018-01-03T10:03:49.484Z,0.90
2018-01-03T10:06:15.901Z,0.93
2018-01-03T10:08:42.329Z,1.20
2018-01-03T10:11:08.727Z,1.45
2018-01-03T10:13:35.156Z,1.00
2018-01-03T10:16:01.562Z,1.75
2018-01-03T10:18:27.979Z,1.15
2018-01-03T10:20:55.143Z,0.73
2018-01-03T10:23:21.548Z,0.75
2018-01-03T10:25:47.973Z,1.67
2018-01-03T10:28:14.382Z,0.57
2018-01-03T10:30:40.799Z,0.98
2018-01-03T10:33:07.204Z,2.62
2018-01-03T10:35:33.602Z,0.55
2018-01-03T10:38:00.014Z,0.93
2018-01-03T10:40:26.456Z,0.82
2018-01-03T10:42:52.900Z,0.55
2018-01-03T10:45:19.310Z,0.60
2018-01-03T10:47:45.755Z,0.90
2018-01-03T10:50:12.159Z,0.70
2018-01-03T10:52:38.540Z,0.35
2018-01-03T10:55:04.933Z,0.40
2018-01-03T10:57:31.377Z,0.50
2018-01-03T10:59:57.833Z,0.40
2018-01-03T11:02:24.316Z,1.65
2018-01-03T11:04:50.821Z,1.70
2018-01-03T11:07:18.184Z,1.85
2018-01-03T11:09:44.592Z,3.30
2018-01-03T11:12:10.988Z,4.20
2018-01-03T11:14:37.486Z,0.90
2018-01-03T11:17:04.680Z,3.37
2018-01-03T11:19:31.077Z,3.20
2018-01-03T11:21:57.490Z,2.33
2018-01-03T11:24:24.660Z,1.87
2018-01-03T11:26:51.136Z,10.65
2018-01-03T11:29:17.689Z,3.30
2018-01-03T11:31:44.221Z,3.28
2018-01-03T11:34:10.891Z,10.32
2018-01-03T11:36:37.337Z,4.15
2018-01-03T11:39:03.845Z,4.40
2018-01-03T11:41:31.129Z,5.78
2018-01-03T11:43:57.576Z,6.25
2018-01-03T11:46:23.984Z,5.95
2018-01-03T11:48:50.384Z,6.80
2018-01-03T11:51:17.596Z,3.87
2018-01-03T11:53:44.028Z,2.17
2018-01-03T11:56:10.436Z,3.53
2018-01-03T11:58:36.896Z,2.35
2018-01-03T12:01:03.368Z,4.72
2018-01-03T12:03:30.658Z,5.32
2018-01-03T12:05:57.096Z,4.55
2018-01-03T12:08:23.528Z,3.65
2018-01-03T12:10:49.957Z,5.50
2018-01-03T12:13:16.393Z,5.85
2018-01-03T12:15:42.825Z,4.60
2018-01-03T12:18:09.261Z,4.97
2018-01-03T12:20:35.728Z,4.18
2018-01-03T12:23:02.195Z,2.40
2018-01-03T12:25:29.373Z,8.10
2018-01-03T12:27:55.782Z,4.60
2018-01-03T12:30:22.949Z,3.47
2018-01-03T12:32:49.381Z,3.22
2018-01-03T12:35:15.817Z,3.08
2018-01-03T12:37:42.264Z,11.45
2018-01-03T12:40:08.720Z,4.93
2018-01-03T12:42:35.231Z,5.15
2018-01-03T12:45:01.692Z,4.95
2018-01-03T12:47:28.121Z,8.60
2018-01-03T12:49:54.557Z,8.90
2018-01-03T12:52:21.703Z,7.57
2018-01-03T12:54:48.140Z,3.87
2018-01-03T12:57:14.583Z,6.22
2018-01-03T12:59:41.060Z,7.07
2018-01-03T13:02:07.549Z,8.63
2018-01-03T13:04:34.042Z,7.30
2018-01-03T13:07:00.469Z,6.30
2018-01-03T13:09:26.912Z,5.30
2018-01-03T13:11:53.357Z,4.97
2018-01-03T13:14:19.795Z,9.38
2018-01-03T13:16:46.249Z,6.25
2018-01-03T13:19:12.692Z,6.90
2018-01-03T13:21:39.142Z,5.85
2018-01-03T13:24:06.323Z,9.18
2018-01-03T13:26:32.767Z,7.12
2018-01-03T13:28:59.216Z,8.80
2018-01-03T13:31:26.374Z,9.13
2018-01-03T13:33:53.085Z,2.95
2018-01-03T13:36:19.477Z,8.40
2018-01-03T13:38:46.649Z,7.03
2018-01-03T13:41:13.109Z,11.88
2018-01-03T13:43:39.519Z,5.93
2018-01-03T13:46:05.945Z,9.93
2018-01-03T13:48:32.345Z,8.05
2018-01-03T13:50:58.770Z,13.05
2018-01-03T13:53:25.212Z,5.45
2018-01-03T13:55:51.780Z,9.52
2018-01-03T13:58:18.217Z,6.85
2018-01-03T14:00:44.664Z,4.75
2018-01-03T14:03:11.158Z,8.90
2018-01-03T14:05:38.324Z,9.43
2018-01-03T14:08:04.764Z,13.20
2018-01-03T14:10:31.244Z,12.73
2018-01-03T14:12:58.461Z,8.70
2018-01-03T14:15:24.937Z,10.68
2018-01-03T14:17:51.405Z,10.32
2018-01-03T14:20:18.549Z,9.50
2018-01-03T14:22:44.996Z,12.95
2018-01-03T14:25:11.468Z,9.30
2018-01-03T14:27:37.857Z,12.00
2018-01-03T14:30:05.065Z,5.70
2018-01-03T14:32:31.480Z,8.30
2018-01-03T14:34:57.923Z,9.65
2018-01-03T14:37:25.109Z,12.45
2018-01-03T14:39:52.326Z,5.65
2018-01-03T14:42:18.770Z,15.30
2018-01-03T14:44:45.192Z,11.35
2018-01-03T14:47:11.648Z,15.07
2018-01-03T14:49:38.085Z,5.90
2018-01-03T14:52:04.499Z,9.00
2018-01-03T14:54:30.913Z,10.15
2018-01-03T14:56:57.391Z,8.10
2018-01-03T14:59:24.549Z,9.70
2018-01-03T15:01:51.728Z,8.68
2018-01-03T15:04:18.185Z,10.50
2018-01-03T15:06:44.624Z,9.75
2018-01-03T15:09:11.072Z,17.67
2018-01-03T15:11:37.512Z,22.77
2018-01-03T15:14:03.926Z,11.25
2018-01-03T15:16:30.382Z,9.57
2018-01-03T15:18:57.565Z,10.43
2018-01-03T15:21:23.978Z,15.52
2018-01-03T15:23:51.139Z,15.20
2018-01-03T15:26:17.577Z,16.25
2018-01-03T15:28:44.080Z,14.52
2018-01-03T15:31:11.292Z,14.73
2018-01-03T15:33:37.716Z,13.55
2018-01-03T15:36:04.156Z,9.60
2018-01-03T15:38:30.609Z,13.07
2018-01-03T15:40:57.008Z,12.40
2018-01-03T15:43:23.459Z,10.18
2018-01-03T15:45:49.877Z,14.73
2018-01-03T15:48:16.321Z,11.48
2018-01-03T15:50:42.782Z,13.65
2018-01-03T15:53:09.185Z,10.90
2018-01-03T15:55:35.606Z,15.38
2018-01-03T15:58:02.012Z,9.20
2018-01-03T16:00:28.433Z,13.25
2018-01-03T16:02:54.889Z,14.15
2018-01-03T16:05:21.324Z,13.68
2018-01-03T16:07:47.742Z,7.00
2018-01-03T16:10:14.892Z,13.50
2018-01-03T16:12:42.046Z,7.85
2018-01-03T16:15:08.513Z,8.57
2018-01-03T16:17:34.932Z,11.90
2018-01-03T16:20:01.436Z,13.18
2018-01-03T16:22:28.609Z,13.25
2018-01-03T16:24:55.045Z,13.05
2018-01-03T16:27:21.480Z,11.68
2018-01-03T16:29:47.894Z,16.30
2018-01-03T16:32:14.352Z,11.65
2018-01-03T16:34:40.796Z,19.42
2018-01-03T16:37:07.251Z,15.32
2018-01-03T16:39:33.743Z,16.02
2018-01-03T16:42:00.169Z,10.90
2018-01-03T16:44:26.745Z,14.75
2018-01-03T16:46:54.692Z,8.73
2018-01-03T16:49:21.105Z,9.95
2018-01-03T16:51:53.668Z,15.43
2018-01-03T16:54:20.840Z,12.32
2018-01-03T16:56:47.336Z,9.00
2018-01-03T16:59:14.517Z,11.30
2018-01-03T17:01:41.002Z,13.13
2018-01-03T17:04:07.421Z,12.43
2018-01-03T17:06:34.626Z,6.10
2018-01-03T17:09:01.804Z,12.90
2018-01-03T17:11:28.241Z,7.93
2018-01-03T17:13:54.658Z,12.30
2018-01-03T17:16:21.183Z,10.57
2018-01-03T17:21:47.951Z,6.28
2018-01-03T17:24:14.355Z,6.72
2018-01-03T17:26:41.518Z,7.32
2018-01-03T17:29:07.992Z,15.13
2018-01-03T17:31:34.479Z,11.95
2018-01-03T17:34:01.641Z,12.25
2018-01-03T17:36:28.070Z,17.17
2018-01-03T17:38:54.523Z,15.07
2018-01-03T17:41:21.008Z,9.70
2018-01-03T17:43:48.184Z,13.18
2018-01-03T17:46:14.635Z,9.15
2018-01-03T17:48:41.053Z,8.90
2018-01-03T17:51:07.584Z,7.20
2018-01-03T17:53:33.977Z,8.63
2018-01-03T17:56:00.400Z,12.40
2018-01-03T17:58:27.721Z,69.03
2018-01-03T18:00:54.193Z,11.48
2018-01-03T18:03:20.705Z,12.65
2018-01-03T18:05:47.157Z,9.60
2018-01-03T18:08:13.602Z,12.43
2018-01-03T18:10:40.409Z,19.60
2018-01-03T18:13:06.959Z,15.02
2018-01-03T18:15:33.369Z,9.60
2018-01-03T18:17:59.805Z,16.58
2018-01-03T18:20:26.233Z,4.87
2018-01-03T18:22:52.684Z,6.90
2018-01-03T18:25:19.093Z,11.77
2018-01-03T18:27:45.697Z,11.23
2018-01-03T18:30:12.173Z,11.12
2018-01-03T18:32:38.589Z,14.77
2018-01-03T18:35:05.041Z,18.65
2018-01-03T18:37:31.472Z,10.55
2018-01-03T18:39:57.907Z,13.65
2018-01-03T18:42:25.167Z,14.80
2018-01-03T18:44:52.361Z,13.52
2018-01-03T18:47:19.544Z,12.93
2018-01-03T18:49:46.054Z,16.05
2018-01-03T18:52:12.501Z,11.75
2018-01-03T18:54:38.927Z,14.02
2018-01-03T18:57:06.105Z,12.23
2018-01-03T18:59:32.628Z,13.23
2018-01-03T19:01:59.117Z,9.85
2018-01-03T19:04:26.317Z,13.45
2018-01-03T19:06:52.779Z,11.65
2018-01-03T19:09:19.370Z,13.23
2018-01-03T19:11:45.817Z,11.60
2018-01-03T19:14:12.254Z,17.92
2018-01-03T19:16:38.724Z,11.35
2018-01-03T19:19:05.180Z,13.82
2018-01-03T19:21:32.674Z,9.85
2018-01-03T19:23:59.124Z,11.80
2018-01-03T19:26:25.573Z,8.75
2018-01-03T19:28:52.042Z,9.93
2018-01-03T19:31:19.276Z,13.05
2018-01-03T19:33:45.724Z,11.00
2018-01-03T19:36:12.933Z,16.42
2018-01-03T19:38:39.378Z,10.20
2018-01-03T19:41:05.804Z,12.40
2018-01-03T19:43:32.364Z,10.18
2018-01-03T19:45:58.812Z,14.10
2018-01-03T19:48:26.044Z,10.98
2018-01-03T19:50:53.237Z,12.05
2018-01-03T19:53:19.685Z,12.00
2018-01-03T19:55:46.157Z,10.77
2018-01-03T19:58:12.598Z,8.65
2018-01-03T20:00:39.850Z,11.20
2018-01-03T20:03:06.304Z,15.70
2018-01-03T20:05:33.526Z,13.85
2018-01-03T20:08:00.713Z,11.60
2018-01-03T20:10:27.220Z,10.20
2018-01-03T20:12:54.453Z,12.25
2018-01-03T20:15:20.900Z,6.55
2018-01-03T20:17:47.318Z,12.50
2018-01-03T20:20:14.499Z,12.20
2018-01-03T20:22:41.688Z,11.18
2018-01-03T20:25:08.237Z,9.15
2018-01-03T20:27:34.674Z,8.55
2018-01-03T20:30:01.163Z,10.55
2018-01-03T20:32:28.325Z,15.65
2018-01-03T20:34:54.761Z,17.75
2018-01-03T20:37:21.265Z,10.18
2018-01-03T20:39:48.464Z,8.32
2018-01-03T20:42:14.933Z,8.55
2018-01-03T20:44:41.353Z,8.80
2018-01-03T20:47:07.865Z,9.70
2018-01-03T20:49:34.312Z,14.23
2018-01-03T20:52:01.052Z,6.35
2018-01-03T20:54:27.518Z,12.43
2018-01-03T20:56:54.675Z,19.95
2018-01-03T20:59:21.902Z,8.75
2018-01-03T21:01:48.393Z,10.45
2018-01-03T21:04:14.831Z,9.88
2018-01-03T21:06:41.275Z,10.05
2018-01-03T21:09:07.824Z,8.30
2018-01-03T21:11:34.320Z,13.38
2018-01-03T21:14:00.781Z,10.60
2018-01-03T21:16:27.187Z,11.95
2018-01-03T21:18:54.009Z,11.75
2018-01-03T21:21:21.517Z,10.15
2018-01-03T21:23:47.924Z,16.02
2018-01-03T21:26:14.381Z,14.80
2018-01-03T21:28:40.836Z,8.20
2018-01-03T21:31:07.996Z,12.90
2018-01-03T21:33:35.253Z,9.75
2018-01-03T21:36:01.704Z,16.85
2018-01-03T21:38:28.916Z,11.00
2018-01-03T21:40:55.358Z,11.02
2018-01-03T21:43:22.604Z,12.07
2018-01-03T21:45:49.082Z,14.52
2018-01-03T21:48:15.638Z,13.62
2018-01-03T21:50:42.254Z,14.60
2018-01-03T21:53:08.706Z,7.85
2018-01-03T21:55:35.161Z,8.52
2018-01-03T21:58:01.612Z,13.25
2018-01-03T22:00:28.063Z,13.95
2018-01-03T22:02:55.264Z,9.88
2018-01-03T22:05:21.718Z,7.22
2018-01-03T22:07:48.193Z,13.40
2018-01-03T22:10:14.626Z,11.18
2018-01-03T22:12:41.786Z,7.65
2018-01-03T22:15:08.197Z,8.38
2018-01-03T22:17:35.366Z,12.15
2018-01-03T22:20:02.642Z,9.27
2018-01-03T22:22:29.081Z,9.63
2018-01-03T22:24:55.544Z,10.25
2018-01-03T22:27:21.974Z,11.77
2018-01-03T22:29:48.362Z,13.48
2018-01-03T22:32:14.792Z,9.60
2018-01-03T22:34:41.317Z,9.32
2018-01-03T22:37:07.718Z,10.93
2018-01-03T22:39:34.179Z,12.63
2018-01-03T22:42:00.625Z,9.38
2018-01-03T22:44:27.270Z,13.50
2018-01-03T22:46:53.717Z,9.20
2018-01-03T22:49:20.190Z,6.82
2018-01-03T22:51:47.706Z,6.97
2018-01-03T22:54:14.157Z,9.32
2018-01-03T22:56:40.600Z,13.38
2018-01-03T22:59:07.051Z,7.53
2018-01-03T23:01:33.505Z,10.02
2018-01-03T23:04:00.690Z,10.57
2018-01-03T23:06:27.130Z,11.00
2018-01-03T23:08:53.588Z,12.63
2018-01-03T23:11:20.112Z,10.25
2018-01-03T23:13:46.549Z,8.30
2018-01-03T23:16:12.967Z,7.57
2018-01-03T23:18:39.412Z,10.55
2018-01-03T23:21:05.880Z,7.90
2018-01-03T23:23:33.026Z,7.12
2018-01-03T23:26:00.237Z,7.85
2018-01-03T23:28:26.653Z,9.45
2018-01-03T23:30:53.085Z,8.70
2018-01-03T23:33:19.513Z,8.93
2018-01-03T23:35:45.952Z,11.63
2018-01-03T23:38:12.511Z,6.90
2018-01-03T23:40:38.937Z,8.70
2018-01-03T23:43:05.336Z,14.43
2018-01-03T23:45:31.792Z,13.00
2018-01-03T23:47:58.233Z,8.27
2018-01-03T23:50:24.656Z,12.20
2018-01-03T23:52:51.116Z,11.65
2018-01-03T23:55:17.517Z,10.68
2018-01-03T23:57:43.994Z,7.72
